createdAt,value
2017-05-15T00:01:46.491Z,15.50
2017-05-15T00:04:14.830Z,15.50
2017-05-15T00:06:43.128Z,15.50
2017-05-15T00:09:11.433Z,15.50
2017-05-15T00:11:40.510Z,15.50
2017-05-15T00:14:08.814Z,15.50
2017-05-15T00:16:37.087Z,15.50
2017-05-15T00:19:06.240Z,15.50
2017-05-15T00:21:34.551Z,15.50
2017-05-15T00:24:02.852Z,15.40
2017-05-15T00:26:31.228Z,15.40
2017-05-15T00:28:59.527Z,15.50
2017-05-15T00:31:27.894Z,15.50
2017-05-15T00:33:56.237Z,15.50
2017-05-15T00:36:24.566Z,15.50
2017-05-15T00:38:52.853Z,15.60
2017-05-15T00:41:21.146Z,15.60
2017-05-15T00:43:49.467Z,15.60
2017-05-15T00:46:17.748Z,15.60
2017-05-15T00:48:46.024Z,15.70
2017-05-15T00:51:14.496Z,15.70
2017-05-15T00:53:42.794Z,15.70
2017-05-15T00:56:11.146Z,15.70
2017-05-15T00:58:40.207Z,15.60
2017-05-15T01:01:08.515Z,15.60
2017-05-15T01:03:36.839Z,15.60
2017-05-15T01:06:05.151Z,15.80
2017-05-15T01:08:33.628Z,15.80
2017-05-15T01:11:01.906Z,15.60
2017-05-15T01:13:30.287Z,15.50
2017-05-15T01:15:58.568Z,15.60
2017-05-15T01:18:26.867Z,15.60
2017-05-15T01:20:55.179Z,15.70
2017-05-15T01:23:24.178Z,15.80
2017-05-15T01:25:52.465Z,15.80
2017-05-15T01:28:20.758Z,15.90
2017-05-15T01:30:49.067Z,16.00
2017-05-15T01:33:17.376Z,15.90
2017-05-15T01:35:45.744Z,15.90
2017-05-15T01:38:14.795Z,15.80
2017-05-15T01:40:43.122Z,15.70
2017-05-15T01:43:11.436Z,15.70
2017-05-15T01:45:39.735Z,15.60
2017-05-15T01:48:08.030Z,15.60
2017-05-15T01:50:36.351Z,15.60
2017-05-15T01:53:04.673Z,15.50
2017-05-15T01:55:32.978Z,15.50
2017-05-15T01:58:01.268Z,15.50
2017-05-15T02:00:29.600Z,15.60
2017-05-15T02:02:57.878Z,15.60
2017-05-15T02:05:26.162Z,15.70
2017-05-15T02:07:55.229Z,15.70
2017-05-15T02:10:23.542Z,15.80
2017-05-15T02:12:51.843Z,15.90
2017-05-15T02:15:20.894Z,15.90
2017-05-15T02:17:49.242Z,16.00
2017-05-15T02:20:17.540Z,16.00
2017-05-15T02:22:45.852Z,16.00
2017-05-15T02:25:14.141Z,16.00
2017-05-15T02:27:43.200Z,16.10
2017-05-15T02:30:11.480Z,16.00
2017-05-15T02:32:39.755Z,16.10
2017-05-15T02:35:08.067Z,16.10
2017-05-15T02:37:36.369Z,16.10
2017-05-15T02:40:04.642Z,16.10
2017-05-15T02:42:32.926Z,16.00
2017-05-15T02:45:01.230Z,15.90
2017-05-15T02:47:29.592Z,16.00
2017-05-15T02:49:57.879Z,16.10
2017-05-15T02:52:27.051Z,16.10
2017-05-15T02:54:55.431Z,16.10
2017-05-15T02:57:23.753Z,16.20
2017-05-15T02:59:52.062Z,16.20
2017-05-15T03:02:20.373Z,16.20
2017-05-15T03:04:48.715Z,16.20
2017-05-15T03:07:17.016Z,16.20
2017-05-15T03:09:45.317Z,16.10
2017-05-15T03:12:13.611Z,16.10
2017-05-15T03:14:41.918Z,16.10
2017-05-15T03:17:10.211Z,16.20
2017-05-15T03:19:38.490Z,16.30
2017-05-15T03:22:06.811Z,16.30
2017-05-15T03:24:35.097Z,16.30
2017-05-15T03:27:03.378Z,16.30
2017-05-15T03:29:31.668Z,16.30
2017-05-15T03:31:59.966Z,16.20
2017-05-15T03:34:28.244Z,16.20
2017-05-15T03:36:57.337Z,16.20
2017-05-15T03:39:25.611Z,16.20
2017-05-15T03:41:53.890Z,16.20
2017-05-15T03:44:22.205Z,16.10
2017-05-15T03:46:50.486Z,16.10
2017-05-15T03:49:18.770Z,16.10
2017-05-15T03:51:47.091Z,16.10
2017-05-15T03:54:15.379Z,16.20
2017-05-15T03:56:43.661Z,16.30
2017-05-15T03:59:12.689Z,16.30
2017-05-15T04:01:40.997Z,16.30
2017-05-15T04:04:09.296Z,16.40
2017-05-15T04:06:37.578Z,16.40
2017-05-15T04:09:05.898Z,16.40
2017-05-15T04:11:34.228Z,16.50
2017-05-15T04:14:02.518Z,16.50
2017-05-15T04:16:30.816Z,16.50
2017-05-15T04:18:59.841Z,16.50
2017-05-15T04:21:28.121Z,16.60
2017-05-15T04:23:56.895Z,16.50
2017-05-15T04:26:25.227Z,16.60
2017-05-15T04:28:53.533Z,16.70
2017-05-15T04:31:22.604Z,16.60
2017-05-15T04:33:50.884Z,16.60
2017-05-15T04:36:19.182Z,16.60
2017-05-15T04:38:47.474Z,16.50
2017-05-15T04:41:15.747Z,16.40
2017-05-15T04:43:44.061Z,16.30
2017-05-15T04:46:12.343Z,16.10
2017-05-15T04:48:40.627Z,16.10
2017-05-15T04:51:08.925Z,16.20
2017-05-15T04:53:37.224Z,16.30
2017-05-15T04:56:06.256Z,16.30
2017-05-15T04:58:34.525Z,16.40
2017-05-15T05:01:02.858Z,16.40
2017-05-15T05:03:31.135Z,16.40
2017-05-15T05:06:00.757Z,16.40
2017-05-15T05:08:29.079Z,16.50
2017-05-15T05:10:57.404Z,16.60
2017-05-15T05:13:26.552Z,16.60
2017-05-15T05:15:54.935Z,16.50
2017-05-15T05:18:23.209Z,16.60
2017-05-15T05:21:16.896Z,16.60
2017-05-15T05:24:08.165Z,16.50
2017-05-15T05:26:57.878Z,16.50
2017-05-15T05:29:46.744Z,16.40
2017-05-15T05:32:26.878Z,16.40
2017-05-15T05:35:16.607Z,16.40
2017-05-15T05:38:18.432Z,16.50
2017-05-15T05:40:51.238Z,16.50
2017-05-15T05:43:23.187Z,16.40
2017-05-15T05:45:51.591Z,16.50
2017-05-15T05:48:19.927Z,16.60
2017-05-15T05:50:48.227Z,16.70
2017-05-15T05:53:16.518Z,16.70
2017-05-15T05:56:11.516Z,16.80
2017-05-15T05:58:39.793Z,16.80
2017-05-15T06:01:19.996Z,16.80
2017-05-15T06:04:00.097Z,16.80
2017-05-15T06:06:40.136Z,16.80
2017-05-15T06:09:20.360Z,16.80
2017-05-15T06:12:00.631Z,16.80
2017-05-15T06:14:52.736Z,16.80
2017-05-15T06:17:44.270Z,16.90
2017-05-15T06:20:12.093Z,16.80
2017-05-15T06:22:52.232Z,16.90
2017-05-15T06:25:32.229Z,16.90
2017-05-15T06:28:00.511Z,17.00
2017-05-15T06:30:28.851Z,17.00
2017-05-15T06:32:57.114Z,17.00
2017-05-15T06:35:25.415Z,17.00
2017-05-15T06:38:18.313Z,17.00
2017-05-15T06:41:11.014Z,17.00
2017-05-15T06:43:39.479Z,17.00
2017-05-15T06:46:07.764Z,16.80
2017-05-15T06:48:36.077Z,16.90
2017-05-15T06:51:04.391Z,17.00
2017-05-15T06:53:32.664Z,17.10
2017-05-15T06:56:00.970Z,17.10
2017-05-15T06:58:29.275Z,17.20
2017-05-15T07:00:57.560Z,17.20
2017-05-15T07:03:25.872Z,17.30
2017-05-15T07:05:54.199Z,17.30
2017-05-15T07:08:22.271Z,17.30
2017-05-15T07:10:50.579Z,17.30
2017-05-15T07:13:18.881Z,17.40
2017-05-15T07:15:47.194Z,17.40
2017-05-15T07:18:15.475Z,17.50
2017-05-15T07:20:43.751Z,17.50
2017-05-15T07:23:12.120Z,17.70
2017-05-15T07:25:40.436Z,17.80
2017-05-15T07:28:08.752Z,18.00
2017-05-15T07:30:37.024Z,18.10
2017-05-15T07:33:05.319Z,18.30
2017-05-15T07:35:33.617Z,18.30
2017-05-15T07:38:01.923Z,18.40
2017-05-15T07:40:30.215Z,18.50
2017-05-15T07:42:59.249Z,18.50
2017-05-15T07:45:27.530Z,18.60
2017-05-15T07:47:55.914Z,18.70
2017-05-15T07:50:24.231Z,18.60
2017-05-15T07:52:52.530Z,18.60
2017-05-15T07:55:20.804Z,18.60
2017-05-15T07:57:49.152Z,18.70
2017-05-15T08:00:17.481Z,18.70
2017-05-15T08:02:45.765Z,18.60
2017-05-15T08:05:14.178Z,18.60
2017-05-15T08:07:42.479Z,18.70
2017-05-15T08:10:11.490Z,18.70
2017-05-15T08:12:39.818Z,18.80
2017-05-15T08:15:08.104Z,18.70
2017-05-15T08:17:36.386Z,18.70
2017-05-15T08:20:04.647Z,18.70
2017-05-15T08:22:32.927Z,18.80
2017-05-15T08:25:01.243Z,19.00
2017-05-15T08:27:30.262Z,19.00
2017-05-15T08:29:58.559Z,19.00
2017-05-15T08:32:26.841Z,18.70
2017-05-15T08:34:55.122Z,18.60
2017-05-15T08:37:23.432Z,18.40
2017-05-15T08:39:51.720Z,18.30
2017-05-15T08:42:20.791Z,18.20
2017-05-15T08:44:49.117Z,18.10
2017-05-15T08:47:17.446Z,18.00
2017-05-15T08:49:45.775Z,18.10
2017-05-15T08:52:14.064Z,17.90
2017-05-15T08:54:42.359Z,17.90
2017-05-15T08:57:10.676Z,17.70
2017-05-15T08:59:39.048Z,17.90
2017-05-15T09:02:07.337Z,18.10
2017-05-15T09:04:35.619Z,18.20
2017-05-15T09:07:04.682Z,18.30
2017-05-15T09:09:32.954Z,18.40
2017-05-15T09:12:01.446Z,18.50
2017-05-15T09:14:29.765Z,18.40
2017-05-15T09:16:58.050Z,18.30
2017-05-15T09:19:26.334Z,18.50
2017-05-15T09:21:54.628Z,18.50
2017-05-15T09:24:22.916Z,18.40
2017-05-15T09:26:51.223Z,18.30
2017-05-15T09:29:19.513Z,18.20
2017-05-15T09:31:48.534Z,18.20
2017-05-15T09:34:16.859Z,18.60
2017-05-15T09:36:45.223Z,18.80
2017-05-15T09:39:13.516Z,19.10
2017-05-15T09:41:41.834Z,19.20
2017-05-15T09:44:10.139Z,19.00
2017-05-15T09:46:38.414Z,19.00
2017-05-15T09:49:06.730Z,18.70
2017-05-15T09:51:35.837Z,18.70
2017-05-15T09:54:04.171Z,18.90
2017-05-15T09:56:32.476Z,19.20
2017-05-15T09:59:00.761Z,19.40
2017-05-15T10:01:29.043Z,19.50
2017-05-15T10:03:57.318Z,19.40
2017-05-15T10:06:25.596Z,19.30
2017-05-15T10:08:53.870Z,19.20
2017-05-15T10:11:22.166Z,19.10
2017-05-15T10:13:50.871Z,19.40
2017-05-15T10:16:19.152Z,19.60
2017-05-15T10:18:47.468Z,19.70
2017-05-15T10:21:15.755Z,19.80
2017-05-15T10:23:44.090Z,19.80
2017-05-15T10:26:12.384Z,19.80
2017-05-15T10:28:40.683Z,20.00
2017-05-15T10:31:08.992Z,20.10
2017-05-15T10:33:37.287Z,21.00
2017-05-15T10:36:05.645Z,22.50
2017-05-15T10:38:34.671Z,23.20
2017-05-15T10:41:02.939Z,22.80
2017-05-15T10:43:31.259Z,23.10
2017-05-15T10:45:59.571Z,23.90
2017-05-15T10:48:28.659Z,24.30
2017-05-15T10:50:56.964Z,24.40
2017-05-15T10:53:25.268Z,24.50
2017-05-15T10:55:53.565Z,24.60
2017-05-15T10:58:21.844Z,23.20
2017-05-15T11:00:50.196Z,24.30
2017-05-15T11:03:18.519Z,25.80
2017-05-15T11:05:46.822Z,26.50
2017-05-15T11:08:16.093Z,26.30
2017-05-15T11:10:45.130Z,26.30
2017-05-15T11:13:13.419Z,25.70
2017-05-15T11:15:41.762Z,25.30
2017-05-15T11:18:10.788Z,25.70
2017-05-15T11:20:40.126Z,26.50
2017-05-15T11:23:08.421Z,26.90
2017-05-15T11:25:36.769Z,28.20
2017-05-15T11:28:05.057Z,29.40
2017-05-15T11:30:33.387Z,29.70
2017-05-15T11:33:01.671Z,30.60
2017-05-15T11:35:29.986Z,30.10
2017-05-15T11:37:58.290Z,29.90
2017-05-15T11:40:26.553Z,29.70
2017-05-15T11:42:54.833Z,30.00
2017-05-15T11:45:23.141Z,28.40
2017-05-15T11:47:52.188Z,27.70
2017-05-15T11:50:20.501Z,28.60
2017-05-15T11:52:48.800Z,28.60
2017-05-15T11:55:17.090Z,29.10
2017-05-15T11:57:45.377Z,29.90
2017-05-15T12:00:13.700Z,31.10
2017-05-15T12:02:42.009Z,31.40
2017-05-15T12:05:10.334Z,32.50
2017-05-15T12:07:38.663Z,32.90
2017-05-15T12:10:07.851Z,33.10
2017-05-15T12:12:36.179Z,33.00
2017-05-15T12:15:04.693Z,34.20
2017-05-15T12:17:33.001Z,33.30
2017-05-15T12:20:02.072Z,33.20
2017-05-15T12:22:30.373Z,33.00
2017-05-15T12:24:59.397Z,33.30
2017-05-15T12:27:27.696Z,33.00
2017-05-15T12:29:55.984Z,33.30
2017-05-15T12:32:24.268Z,33.30
2017-05-15T12:34:52.549Z,32.70
2017-05-15T12:37:20.831Z,31.00
2017-05-15T12:39:49.145Z,30.70
2017-05-15T12:42:17.436Z,29.80
2017-05-15T12:44:45.711Z,29.90
2017-05-15T12:47:13.999Z,30.10
2017-05-15T12:49:42.306Z,30.10
2017-05-15T12:52:10.637Z,29.80
2017-05-15T12:54:38.996Z,29.00
2017-05-15T12:57:08.101Z,27.40
2017-05-15T12:59:36.413Z,27.60
2017-05-15T13:02:04.720Z,28.00
2017-05-15T13:04:33.035Z,26.50
2017-05-15T13:07:01.329Z,26.10
2017-05-15T13:09:29.691Z,25.90
2017-05-15T13:11:57.985Z,25.80
2017-05-15T13:14:26.303Z,25.90
2017-05-15T13:16:54.680Z,25.80
2017-05-15T13:19:22.987Z,25.70
2017-05-15T13:21:52.058Z,25.50
2017-05-15T13:24:20.371Z,25.20
2017-05-15T13:26:49.416Z,25.00
2017-05-15T13:29:18.156Z,24.70
2017-05-15T13:31:46.444Z,24.50
2017-05-15T13:34:14.742Z,24.70
2017-05-15T13:36:43.098Z,25.00
2017-05-15T13:39:11.429Z,25.30
2017-05-15T13:41:39.745Z,25.50
2017-05-15T13:44:08.121Z,26.30
2017-05-15T13:46:36.408Z,26.40
2017-05-15T13:49:04.703Z,26.50
2017-05-15T13:51:33.001Z,26.50
2017-05-15T13:54:01.391Z,26.50
2017-05-15T13:56:29.718Z,25.90
2017-05-15T13:58:58.018Z,25.30
2017-05-15T14:01:26.312Z,24.70
2017-05-15T14:03:54.623Z,24.00
2017-05-15T14:06:22.992Z,23.70
2017-05-15T14:08:51.325Z,23.80
2017-05-15T14:11:19.611Z,24.00
2017-05-15T14:13:47.893Z,24.00
2017-05-15T14:16:16.183Z,24.00
2017-05-15T14:18:44.503Z,23.80
2017-05-15T14:21:12.802Z,23.80
2017-05-15T14:23:41.158Z,23.90
2017-05-15T14:26:09.476Z,24.00
2017-05-15T14:28:37.771Z,23.80
2017-05-15T14:31:06.050Z,23.70
2017-05-15T14:33:34.372Z,23.80
2017-05-15T14:36:03.397Z,23.70
2017-05-15T14:38:31.711Z,23.80
2017-05-15T14:41:00.011Z,24.10
2017-05-15T14:43:28.287Z,24.30
2017-05-15T14:45:56.638Z,24.30
2017-05-15T14:48:24.932Z,24.20
2017-05-15T14:50:53.228Z,24.20
2017-05-15T14:53:21.529Z,24.20
2017-05-15T14:55:49.943Z,24.10
2017-05-15T14:58:18.263Z,24.00
2017-05-15T15:00:46.707Z,23.90
2017-05-15T15:03:14.993Z,23.90
2017-05-15T15:05:43.412Z,23.90
2017-05-15T15:08:12.486Z,24.20
2017-05-15T15:10:41.522Z,24.00
2017-05-15T15:13:09.848Z,24.10
2017-05-15T15:15:38.146Z,24.30
2017-05-15T15:18:07.417Z,24.70
2017-05-15T15:20:35.879Z,25.40
2017-05-15T15:23:04.253Z,26.70
2017-05-15T15:25:32.571Z,27.90
2017-05-15T15:28:00.980Z,29.10
2017-05-15T15:30:29.270Z,28.90
2017-05-15T15:32:57.550Z,29.20
2017-05-15T15:35:25.831Z,29.80
2017-05-15T15:37:54.108Z,29.80
2017-05-15T15:40:22.444Z,29.70
2017-05-15T15:42:50.736Z,30.00
2017-05-15T15:45:19.021Z,29.60
2017-05-15T15:47:47.314Z,29.90
2017-05-15T15:50:16.545Z,29.80
2017-05-15T15:52:44.819Z,29.50
2017-05-15T15:55:13.300Z,29.20
2017-05-15T15:57:41.671Z,28.80
2017-05-15T16:00:09.967Z,28.50
2017-05-15T16:02:38.365Z,28.50
2017-05-15T16:05:06.899Z,28.00
2017-05-15T16:07:35.333Z,27.90
2017-05-15T16:10:03.619Z,27.50
2017-05-15T16:12:31.919Z,26.60
2017-05-15T16:15:00.247Z,25.40
2017-05-15T16:17:29.531Z,26.30
2017-05-15T16:20:00.895Z,27.60
2017-05-15T16:22:29.388Z,28.70
2017-05-15T16:24:57.718Z,28.90
2017-05-15T16:27:26.026Z,29.00
2017-05-15T16:29:54.323Z,29.00
2017-05-15T16:32:22.646Z,28.70
2017-05-15T16:34:51.008Z,28.90
2017-05-15T16:37:20.057Z,29.20
2017-05-15T16:39:48.353Z,28.30
2017-05-15T16:42:17.923Z,28.30
2017-05-15T16:44:46.291Z,28.10
2017-05-15T16:47:14.596Z,27.70
2017-05-15T16:49:42.888Z,26.90
2017-05-15T16:52:11.179Z,26.60
2017-05-15T16:54:39.561Z,26.80
2017-05-15T16:57:07.869Z,26.90
2017-05-15T16:59:36.155Z,27.00
2017-05-15T17:02:04.463Z,26.90
2017-05-15T17:04:32.747Z,26.90
2017-05-15T17:07:01.105Z,26.90
2017-05-15T17:09:29.511Z,26.60
2017-05-15T17:11:57.810Z,26.50
2017-05-15T17:14:26.130Z,25.80
2017-05-15T17:16:54.434Z,25.60
2017-05-15T17:19:22.760Z,24.40
2017-05-15T17:21:51.227Z,24.10
2017-05-15T17:24:19.712Z,23.80
2017-05-15T17:26:48.867Z,23.40
2017-05-15T17:29:17.237Z,23.00
2017-05-15T17:31:45.584Z,22.80
2017-05-15T17:34:14.058Z,22.70
2017-05-15T17:36:42.432Z,22.50
2017-05-15T17:39:11.026Z,22.30
2017-05-15T17:41:40.127Z,22.20
2017-05-15T17:44:08.547Z,22.10
2017-05-15T17:46:36.828Z,22.00
2017-05-15T17:49:05.121Z,21.80
2017-05-15T17:51:33.545Z,21.70
2017-05-15T17:54:02.030Z,21.60
2017-05-15T17:56:30.362Z,21.40
2017-05-15T17:58:58.701Z,21.40
2017-05-15T18:01:27.015Z,21.30
2017-05-15T18:03:55.348Z,21.30
2017-05-15T18:06:23.659Z,21.30
2017-05-15T18:08:51.948Z,21.20
2017-05-15T18:11:20.247Z,21.00
2017-05-15T18:13:48.554Z,21.00
2017-05-15T18:16:16.822Z,21.10
2017-05-15T18:18:45.884Z,21.00
2017-05-15T18:21:14.179Z,21.00
2017-05-15T18:23:42.480Z,20.90
2017-05-15T18:26:10.786Z,20.80
2017-05-15T18:28:39.077Z,20.80
2017-05-15T18:31:07.587Z,20.70
2017-05-15T18:33:36.639Z,20.60
2017-05-15T18:36:04.919Z,20.60
2017-05-15T18:38:33.227Z,20.50
2017-05-15T18:41:01.577Z,20.40
2017-05-15T18:43:29.884Z,20.40
2017-05-15T18:45:58.162Z,20.30
2017-05-15T18:48:26.500Z,20.30
2017-05-15T18:50:54.896Z,20.20
2017-05-15T18:53:23.202Z,20.20
2017-05-15T18:55:51.509Z,20.20
2017-05-15T18:58:19.794Z,20.20
2017-05-15T19:00:49.059Z,20.10
2017-05-15T19:03:17.375Z,20.10
2017-05-15T19:05:45.687Z,20.00
2017-05-15T19:08:13.959Z,19.90
2017-05-15T19:10:42.240Z,19.90
2017-05-15T19:13:10.690Z,20.00
2017-05-15T19:15:39.000Z,20.00
2017-05-15T19:18:07.299Z,19.90
2017-05-15T19:20:35.617Z,19.90
2017-05-15T19:23:04.156Z,19.80
2017-05-15T19:25:32.463Z,19.80
2017-05-15T19:28:00.807Z,19.70
2017-05-15T19:30:29.143Z,19.80
2017-05-15T19:32:57.474Z,19.70
2017-05-15T19:35:25.786Z,19.70
2017-05-15T19:37:54.084Z,19.60
2017-05-15T19:40:22.436Z,19.60
2017-05-15T19:42:50.731Z,19.50
2017-05-15T19:45:19.193Z,19.50
2017-05-15T19:47:48.435Z,19.50
2017-05-15T19:50:17.114Z,19.60
2017-05-15T19:52:45.408Z,19.60
2017-05-15T19:55:14.394Z,19.50
2017-05-15T19:57:42.795Z,19.50
2017-05-15T20:00:11.174Z,19.50
2017-05-15T20:02:39.518Z,19.30
2017-05-15T20:05:07.918Z,19.30
2017-05-15T20:07:36.454Z,19.30
2017-05-15T20:10:04.810Z,19.30
2017-05-15T20:12:34.062Z,19.20
2017-05-15T20:15:02.481Z,19.20
2017-05-15T20:17:30.893Z,19.20
2017-05-15T20:20:00.091Z,19.20
2017-05-15T20:22:28.412Z,19.20
2017-05-15T20:24:56.775Z,19.10
2017-05-15T20:27:25.144Z,19.00
2017-05-15T20:29:53.467Z,19.00
2017-05-15T20:32:21.760Z,19.00
2017-05-15T20:34:50.121Z,18.90
2017-05-15T20:37:18.457Z,18.90
2017-05-15T20:39:46.873Z,18.90
2017-05-15T20:42:15.154Z,18.90
2017-05-15T20:44:43.602Z,18.80
2017-05-15T20:47:11.995Z,18.80
2017-05-15T20:49:40.326Z,18.70
2017-05-15T20:52:09.359Z,18.70
2017-05-15T20:54:37.689Z,18.60
2017-05-15T20:57:06.225Z,18.60
2017-05-15T20:59:34.599Z,18.60
2017-05-15T21:02:02.885Z,18.50
2017-05-15T21:04:31.224Z,18.50
2017-05-15T21:07:00.380Z,18.40
2017-05-15T21:09:28.733Z,18.30
2017-05-15T21:11:57.084Z,18.20
2017-05-15T21:14:26.148Z,18.20
2017-05-15T21:16:55.395Z,18.10
2017-05-15T21:19:23.688Z,18.00
2017-05-15T21:21:52.763Z,17.90
2017-05-15T21:24:21.122Z,18.00
2017-05-15T21:26:49.432Z,17.90
2017-05-15T21:29:17.929Z,17.70
2017-05-15T21:31:46.213Z,17.50
2017-05-15T21:34:14.681Z,17.50
2017-05-15T21:36:43.857Z,17.50
2017-05-15T21:39:12.178Z,17.60
2017-05-15T21:41:40.511Z,17.50
2017-05-15T21:44:08.792Z,17.50
2017-05-15T21:46:37.176Z,17.70
2017-05-15T21:49:05.517Z,17.50
2017-05-15T21:51:33.824Z,17.50
2017-05-15T21:54:02.115Z,17.60
2017-05-15T21:56:30.414Z,17.60
2017-05-15T21:58:58.706Z,17.70
2017-05-15T22:01:27.007Z,17.70
2017-05-15T22:03:55.316Z,17.70
2017-05-15T22:06:24.388Z,17.70
2017-05-15T22:08:52.744Z,17.60
2017-05-15T22:11:21.961Z,17.50
2017-05-15T22:13:50.361Z,17.40
2017-05-15T22:16:18.705Z,17.40
2017-05-15T22:18:47.039Z,17.40
2017-05-15T22:21:15.346Z,17.30
2017-05-15T22:23:43.626Z,17.30
2017-05-15T22:26:11.964Z,17.30
2017-05-15T22:28:40.294Z,17.30
2017-05-15T22:31:08.592Z,17.30
2017-05-15T22:33:37.639Z,17.20
2017-05-15T22:36:06.028Z,17.20
2017-05-15T22:38:34.315Z,17.20
2017-05-15T22:41:02.612Z,17.10
2017-05-15T22:43:30.915Z,17.10
2017-05-15T22:45:59.242Z,17.10
2017-05-15T22:48:27.540Z,17.10
2017-05-15T22:50:55.833Z,17.00
2017-05-15T22:53:24.134Z,17.00
2017-05-15T22:55:52.417Z,17.00
2017-05-15T22:58:20.703Z,17.00
2017-05-15T23:00:49.019Z,17.00
2017-05-15T23:03:17.322Z,17.00
2017-05-15T23:05:46.402Z,16.90
2017-05-15T23:08:14.686Z,16.80
2017-05-15T23:10:43.716Z,16.80
2017-05-15T23:13:12.003Z,16.80
2017-05-15T23:15:40.320Z,16.80
2017-05-15T23:18:08.627Z,16.70
2017-05-15T23:20:37.715Z,16.60
2017-05-15T23:23:06.745Z,16.60
2017-05-15T23:25:35.063Z,16.70
2017-05-15T23:28:03.321Z,16.70
2017-05-15T23:30:31.656Z,16.70
2017-05-15T23:32:59.994Z,16.70
2017-05-15T23:35:28.319Z,16.60
2017-05-15T23:37:57.531Z,16.60
2017-05-15T23:40:25.877Z,16.60
2017-05-15T23:42:54.921Z,16.40
2017-05-15T23:45:23.228Z,16.40
2017-05-15T23:47:51.587Z,16.40
2017-05-15T23:50:19.972Z,16.50
2017-05-15T23:52:48.289Z,16.50
2017-05-15T23:55:16.619Z,16.50
2017-05-15T23:57:44.908Z,16.50
